createdAt,value
2023-04-09T00:02:25.385Z,9.10
2023-04-09T00:04:30.331Z,9.35
2023-04-09T00:06:34.045Z,10.20
2023-04-09T00:08:37.860Z,9.13
2023-04-09T00:10:41.418Z,9.65
2023-04-09T00:15:00.858Z,9.15
2023-04-09T00:17:04.416Z,10.23
2023-04-09T00:19:07.773Z,9.70
2023-04-09T00:21:13.532Z,9.57
2023-04-09T00:23:17.075Z,9.40
2023-04-09T00:25:20.582Z,9.73
2023-04-09T00:27:24.060Z,9.77
2023-04-09T00:29:27.687Z,9.82
2023-04-09T00:31:33.562Z,10.55
2023-04-09T00:33:37.312Z,9.88
2023-04-09T00:35:40.952Z,9.90
2023-04-09T00:37:46.129Z,10.45
2023-04-09T00:39:49.804Z,9.90
2023-04-09T00:41:57.594Z,10.25
2023-04-09T00:44:01.172Z,10.70
2023-04-09T00:46:04.657Z,10.25
2023-04-09T00:48:08.806Z,10.05
2023-04-09T00:50:12.502Z,10.73
2023-04-09T00:52:16.041Z,10.32
2023-04-09T00:54:21.000Z,9.68
2023-04-09T00:56:24.630Z,9.73
2023-04-09T00:58:28.444Z,11.35
2023-04-09T01:00:31.999Z,10.40
2023-04-09T01:02:35.537Z,10.10
2023-04-09T01:04:40.280Z,10.32
2023-04-09T01:06:47.163Z,11.13
2023-04-09T01:08:53.624Z,10.00
2023-04-09T01:11:57.094Z,9.32
2023-04-09T01:14:07.601Z,10.48
2023-04-09T01:19:34.722Z,10.23
2023-04-09T01:21:38.121Z,9.90
2023-04-09T01:23:47.352Z,9.90
2023-04-09T01:26:03.100Z,10.23
2023-04-09T01:28:18.780Z,10.90
2023-04-09T01:32:22.784Z,10.93
2023-04-09T01:34:26.204Z,10.05
2023-04-09T01:36:29.515Z,9.60
2023-04-09T01:38:33.345Z,10.48
2023-04-09T01:40:36.894Z,10.73
2023-04-09T01:42:40.785Z,10.70
2023-04-09T01:44:45.719Z,10.40
2023-04-09T01:46:49.370Z,9.85
2023-04-09T01:48:53.112Z,9.98
2023-04-09T01:50:56.828Z,10.35
2023-04-09T01:53:01.543Z,9.50
2023-04-09T01:58:30.833Z,11.00
2023-04-09T02:00:38.012Z,10.57
2023-04-09T02:02:44.146Z,10.27
2023-04-09T02:04:48.975Z,10.40
2023-04-09T02:08:53.015Z,9.93
2023-04-09T02:11:01.055Z,10.50
2023-04-09T02:13:04.623Z,11.17
2023-04-09T02:15:08.862Z,10.65
2023-04-09T02:17:41.987Z,10.70
2023-04-09T02:19:46.214Z,11.53
2023-04-09T02:21:49.646Z,10.93
2023-04-09T02:23:53.218Z,11.50
2023-04-09T02:25:56.821Z,11.48
2023-04-09T02:28:00.318Z,11.90
2023-04-09T02:30:04.536Z,11.90
2023-04-09T02:32:08.453Z,12.40
2023-04-09T02:34:24.114Z,11.80
2023-04-09T02:36:27.767Z,12.33
2023-04-09T02:38:31.253Z,12.70
2023-04-09T02:40:34.810Z,12.30
2023-04-09T02:42:38.648Z,11.80
2023-04-09T02:44:42.009Z,12.03
2023-04-09T02:46:46.137Z,12.50
2023-04-09T02:48:50.036Z,11.77
2023-04-09T02:50:55.101Z,10.90
2023-04-09T02:52:58.667Z,10.80
2023-04-09T02:55:01.900Z,12.00
2023-04-09T02:57:14.872Z,11.40
2023-04-09T02:59:19.634Z,11.43
2023-04-09T03:01:23.051Z,10.25
2023-04-09T03:03:26.985Z,11.47
2023-04-09T03:05:31.891Z,12.27
2023-04-09T03:07:36.665Z,12.53
2023-04-09T03:09:40.455Z,13.10
2023-04-09T03:11:43.895Z,12.10
2023-04-09T03:13:47.421Z,12.27
2023-04-09T03:16:14.782Z,12.23
2023-04-09T03:18:18.393Z,12.37
2023-04-09T03:20:21.822Z,12.67
2023-04-09T03:22:25.290Z,11.77
2023-04-09T03:24:32.879Z,12.77
2023-04-09T03:26:37.232Z,12.67
2023-04-09T03:28:40.820Z,13.07
2023-04-09T03:30:44.189Z,12.93
2023-04-09T03:32:47.862Z,13.83
2023-04-09T03:34:51.328Z,12.47
2023-04-09T03:36:54.817Z,12.90
2023-04-09T03:41:00.354Z,12.67
2023-04-09T03:43:04.698Z,13.30
2023-04-09T03:45:09.039Z,13.67
2023-04-09T03:48:07.982Z,13.60
2023-04-09T03:50:12.278Z,13.73
2023-04-09T03:52:15.684Z,13.83
2023-04-09T03:54:19.172Z,13.23
2023-04-09T03:56:23.864Z,13.40
2023-04-09T03:58:30.560Z,13.57
2023-04-09T04:02:45.396Z,12.63
2023-04-09T04:04:49.048Z,13.43
2023-04-09T04:06:52.875Z,14.10
2023-04-09T04:09:01.356Z,13.90
2023-04-09T04:11:06.042Z,13.90
2023-04-09T04:13:13.664Z,13.93
2023-04-09T04:15:17.602Z,14.03
2023-04-09T04:17:21.305Z,13.60
2023-04-09T04:19:30.388Z,14.50
2023-04-09T04:21:34.313Z,13.83
2023-04-09T04:23:38.178Z,14.27
2023-04-09T04:25:43.299Z,14.53
2023-04-09T04:27:47.057Z,13.80
2023-04-09T04:30:15.254Z,14.53
2023-04-09T04:32:18.973Z,14.80
2023-04-09T04:34:22.715Z,14.47
2023-04-09T04:36:26.521Z,15.80
2023-04-09T04:38:30.557Z,14.73
2023-04-09T04:40:34.194Z,14.90
2023-04-09T04:42:37.848Z,15.30
2023-04-09T04:44:41.489Z,14.90
2023-04-09T04:46:47.565Z,15.57
2023-04-09T04:48:51.124Z,14.90
2023-04-09T04:50:58.131Z,15.00
2023-04-09T04:53:01.788Z,14.90
2023-04-09T04:55:05.815Z,15.57
2023-04-09T04:57:28.207Z,14.83
2023-04-09T04:59:32.132Z,14.37
2023-04-09T05:01:36.139Z,14.43
2023-04-09T05:03:41.643Z,15.50
2023-04-09T05:05:46.314Z,14.57
2023-04-09T05:07:50.384Z,15.00
2023-04-09T05:09:54.265Z,15.80
2023-04-09T05:11:58.203Z,16.23
2023-04-09T05:14:01.861Z,13.97
2023-04-09T05:17:05.173Z,15.33
2023-04-09T05:19:10.290Z,16.13
2023-04-09T05:21:13.985Z,16.17
2023-04-09T05:23:17.452Z,16.40
2023-04-09T05:25:27.674Z,16.10
2023-04-09T05:27:31.389Z,16.70
2023-04-09T05:29:51.486Z,15.20
2023-04-09T05:31:54.947Z,17.27
2023-04-09T05:33:58.609Z,16.53
2023-04-09T05:36:04.614Z,14.87
2023-04-09T05:38:07.842Z,16.77
2023-04-09T05:40:12.824Z,15.73
2023-04-09T05:55:33.280Z,15.43
2023-04-09T05:57:36.914Z,15.33
2023-04-09T05:59:40.628Z,15.23
2023-04-09T06:01:47.869Z,14.53
2023-04-09T06:03:52.822Z,13.97
2023-04-09T06:05:58.205Z,14.40
2023-04-09T06:08:02.040Z,15.60
2023-04-09T06:10:05.916Z,14.53
2023-04-09T06:12:12.966Z,14.93
2023-04-09T06:15:07.510Z,15.27
2023-04-09T06:17:11.318Z,15.33
2023-04-09T06:19:15.184Z,15.53
2023-04-09T06:21:19.177Z,16.37
2023-04-09T06:23:23.056Z,15.57
2023-04-09T06:25:41.101Z,15.80
2023-04-09T06:27:46.171Z,16.90
2023-04-09T06:29:49.912Z,17.23
2023-04-09T06:31:53.876Z,16.33
2023-04-09T06:33:57.480Z,17.07
2023-04-09T06:36:00.959Z,17.55
2023-04-09T06:40:06.263Z,16.95
2023-04-09T06:42:09.900Z,17.27
2023-04-09T06:46:33.044Z,17.98
2023-04-09T06:48:39.086Z,17.38
2023-04-09T06:50:45.058Z,18.17
2023-04-09T06:57:24.277Z,18.35
2023-04-09T07:01:54.437Z,18.05
2023-04-09T07:03:58.264Z,17.25
2023-04-09T07:06:13.802Z,18.02
2023-04-09T07:10:34.742Z,18.50
2023-04-09T07:12:41.810Z,18.05
2023-04-09T07:14:46.847Z,17.40
2023-04-09T07:16:50.836Z,17.17
2023-04-09T07:18:54.787Z,18.48
2023-04-09T07:21:39.859Z,17.77
2023-04-09T07:23:43.672Z,18.20
2023-04-09T07:25:47.404Z,16.90
2023-04-09T07:30:21.194Z,18.02
2023-04-09T07:32:25.731Z,17.25
2023-04-09T07:34:38.094Z,17.27
2023-04-09T07:39:00.261Z,17.35
2023-04-09T07:41:04.966Z,16.83
2023-04-09T07:43:08.823Z,17.23
2023-04-09T07:47:33.122Z,16.70
2023-04-09T07:49:40.906Z,18.05
2023-04-09T07:51:44.637Z,17.23
2023-04-09T07:53:48.348Z,17.55
2023-04-09T07:55:55.297Z,17.65
2023-04-09T07:57:59.002Z,16.40
2023-04-09T08:00:05.638Z,17.50
2023-04-09T08:02:44.789Z,17.65
2023-04-09T08:04:49.574Z,17.65
2023-04-09T08:06:53.896Z,17.60
2023-04-09T08:08:57.438Z,16.90
2023-04-09T08:11:00.996Z,17.00
2023-04-09T08:13:05.365Z,17.00
2023-04-09T08:15:09.813Z,17.38
2023-04-09T08:17:13.897Z,18.00
2023-04-09T08:19:19.153Z,17.55
2023-04-09T08:21:22.727Z,17.65
2023-04-09T08:23:26.550Z,17.92
2023-04-09T08:25:30.160Z,17.20
2023-04-09T08:27:53.428Z,17.65
2023-04-09T08:29:57.095Z,17.02
2023-04-09T08:32:00.772Z,17.63
2023-04-09T08:34:04.903Z,17.45
2023-04-09T08:36:14.430Z,17.25
2023-04-09T08:38:17.922Z,17.33
2023-04-09T08:40:21.990Z,17.40
2023-04-09T08:44:43.388Z,16.73
2023-04-09T08:46:47.379Z,17.35
2023-04-09T08:49:00.358Z,16.30
2023-04-09T08:51:04.115Z,17.05
2023-04-09T20:31:35.182Z,8.65
2023-04-09T20:33:38.941Z,8.88
2023-04-09T20:35:42.483Z,8.65
2023-04-09T20:37:48.473Z,8.23
2023-04-09T20:39:51.848Z,8.73
2023-04-09T20:41:56.729Z,8.60
2023-04-09T20:44:00.383Z,7.53
2023-04-09T20:46:14.453Z,7.82
2023-04-09T20:48:19.923Z,8.48
2023-04-09T20:50:23.681Z,7.88
2023-04-09T20:52:28.493Z,8.23
2023-04-09T20:54:32.363Z,7.40
2023-04-09T20:56:36.323Z,7.50
2023-04-09T20:58:40.072Z,7.45
2023-04-09T21:00:43.702Z,7.40
2023-04-09T21:02:47.303Z,7.68
2023-04-09T21:04:52.295Z,7.43
2023-04-09T21:06:55.999Z,7.30
2023-04-09T21:08:59.964Z,7.38
2023-04-09T21:11:03.648Z,8.20
2023-04-09T21:13:07.293Z,7.18
2023-04-09T21:15:11.725Z,7.23
2023-04-09T21:17:15.549Z,7.63
2023-04-09T21:19:18.912Z,7.47
2023-04-09T21:21:23.949Z,7.22
2023-04-09T21:23:33.724Z,8.45
2023-04-09T21:25:36.968Z,7.93
2023-04-09T21:27:41.060Z,7.13
2023-04-09T21:29:48.081Z,8.32
2023-04-09T21:31:51.538Z,7.90
2023-04-09T21:33:58.536Z,7.25
2023-04-09T21:36:03.568Z,7.38
2023-04-09T21:38:08.792Z,7.75
2023-04-09T21:40:12.667Z,7.70
2023-04-09T21:42:16.109Z,8.20
2023-04-09T21:44:20.020Z,8.20
2023-04-09T21:46:23.799Z,8.15
2023-04-09T21:48:59.961Z,7.95
2023-04-09T21:51:03.768Z,8.98
2023-04-09T21:53:09.395Z,9.20
2023-04-09T21:55:13.942Z,8.85
2023-04-09T21:57:17.497Z,8.95
2023-04-09T21:59:21.069Z,8.90
2023-04-09T22:01:29.450Z,9.35
2023-04-09T22:03:47.900Z,9.00
2023-04-09T22:05:51.295Z,9.35
2023-04-09T22:07:54.674Z,8.90
2023-04-09T22:10:00.076Z,8.93
2023-04-09T22:12:04.467Z,8.40
2023-04-09T22:14:07.868Z,8.95
2023-04-09T22:27:59.063Z,8.95
2023-04-09T22:30:02.667Z,8.63
2023-04-09T22:32:06.334Z,8.52
2023-04-09T22:37:35.566Z,9.05
2023-04-09T22:39:39.006Z,8.33
2023-04-09T22:41:43.460Z,8.70
2023-04-09T22:43:48.709Z,8.70
2023-04-09T22:45:52.816Z,9.30
2023-04-09T22:48:03.493Z,8.93
2023-04-09T22:50:08.237Z,8.82
2023-04-09T22:52:11.677Z,8.53
2023-04-09T22:54:15.096Z,9.38
2023-04-09T22:56:19.668Z,8.80
2023-04-09T22:58:48.450Z,8.87
2023-04-09T23:00:52.376Z,8.80
2023-04-09T23:02:55.897Z,8.88
2023-04-09T23:05:00.300Z,8.90
2023-04-09T23:07:03.860Z,9.40
2023-04-09T23:09:07.343Z,8.95
2023-04-09T23:13:11.601Z,9.45
2023-04-09T23:15:16.802Z,9.65
2023-04-09T23:17:22.843Z,9.10
2023-04-09T23:19:27.504Z,9.10
2023-04-09T23:21:33.385Z,9.70
2023-04-09T23:23:37.079Z,9.20
2023-04-09T23:25:40.649Z,9.38
2023-04-09T23:27:44.289Z,8.48
2023-04-09T23:29:47.813Z,9.77
2023-04-09T23:31:52.889Z,9.00
2023-04-09T23:33:56.324Z,8.45
2023-04-09T23:35:59.951Z,9.55
2023-04-09T23:38:04.234Z,9.35
2023-04-09T23:40:08.659Z,9.33
2023-04-09T23:42:12.093Z,9.65
2023-04-09T23:44:15.647Z,9.20
2023-04-09T23:46:19.378Z,9.60
2023-04-09T23:48:24.315Z,8.40
2023-04-09T23:50:29.655Z,9.60
2023-04-09T23:52:39.495Z,8.63
2023-04-09T23:54:51.324Z,9.37
2023-04-09T23:56:54.776Z,9.10
2023-04-09T23:58:58.189Z,9.43
